« Back
NWS Peachtree City, Ga » Text Product » MCN Terminal Aerodrome Forecast


Printer-friendly Version
Current Version              Previous Versions:   1  2  3  4  5  6  7  8  9  

Terminal Aerodrome Forecast

304
FTUS42 KFFC 241700
TAFMCN
TAF
KMCN 241731Z 2418/2518 16006KT P6SM FEW150 SCT250
     FM242100 27004KT P6SM FEW150
     FM250100 00000KT P6SM SKC
     FM251700 33005KT P6SM SKC=

USA.gov is the U.S. government's official web portal to all federal, state and local government web resources and services.